Time;durP1;ratioP1;P1;durP2;ratioP2;P2;SDS_P1;SDS_P2;PMS_P1;PMS_P2;Temp;Humidity;BMP_temperature;BMP_pressure;BME280_temperature;BME280_humidity;BME280_pressure;Samples;Min_cycle;Max_cycle;Signal;HPM_P1;HPM_P2
2022/08/22 00:00:57;;;;;;;1.20;1.10;;;20.20;99.90;;;;;;5089069;28;20264;-67
2022/08/22 00:03:38;;;;;;;0.80;0.80;;;20.20;99.90;;;;;;5086344;28;20213;-66
2022/08/22 00:06:14;;;;;;;0.93;0.93;;;20.20;99.90;;;;;;5091554;28;20281;-66
2022/08/22 00:08:58;;;;;;;0.88;0.88;;;20.20;99.90;;;;;;5093005;28;20210;-66
2022/08/22 00:11:36;;;;;;;0.90;0.90;;;20.20;99.90;;;;;;5091504;28;20659;-67
2022/08/22 00:14:10;;;;;;;0.85;0.85;;;20.20;99.90;;;;;;5089803;28;20286;-67
2022/08/22 00:16:46;;;;;;;1.40;1.30;;;20.20;99.90;;;;;;5086062;28;20205;-68
2022/08/22 00:19:22;;;;;;;1.20;1.10;;;20.20;99.90;;;;;;5092027;28;20217;-66
2022/08/22 00:21:57;;;;;;;0.93;0.93;;;20.10;99.90;;;;;;5091968;28;20680;-66
2022/08/22 00:24:33;;;;;;;1.10;1.00;;;20.20;99.90;;;;;;5092155;28;20248;-66
2022/08/22 00:27:03;;;;;;;1.02;1.02;;;20.20;99.90;;;;;;5090416;28;20198;-66
2022/08/22 00:29:38;;;;;;;1.00;1.00;;;20.10;99.90;;;;;;5085641;28;20234;-67
2022/08/22 00:32:11;;;;;;;1.00;1.00;;;20.00;99.90;;;;;;5095655;28;20205;-67
2022/08/22 00:34:45;;;;;;;0.90;0.90;;;20.00;99.90;;;;;;5091167;28;20290;-67
2022/08/22 00:37:20;;;;;;;0.82;0.82;;;19.90;99.90;;;;;;5088253;28;20692;-67
2022/08/22 00:39:52;;;;;;;1.10;1.10;;;19.80;99.90;;;;;;5095756;28;20309;-66
2022/08/22 00:42:46;;;;;;;1.88;1.00;;;19.80;99.90;;;;;;5087920;28;20218;-66
2022/08/22 00:45:42;;;;;;;1.00;1.00;;;19.70;99.90;;;;;;5093290;28;20285;-67
2022/08/22 00:48:36;;;;;;;1.00;1.00;;;19.70;99.90;;;;;;5089961;28;20285;-68
2022/08/22 00:51:23;;;;;;;1.00;1.00;;;19.70;99.90;;;;;;5095969;28;20460;-68
2022/08/22 00:53:55;;;;;;;1.00;1.00;;;19.60;99.90;;;;;;5091997;28;20655;-68
2022/08/22 00:56:45;;;;;;;1.00;1.00;;;19.60;99.90;;;;;;5095018;28;20213;-67
2022/08/22 00:59:32;;;;;;;1.00;1.00;;;19.60;99.90;;;;;;5095734;28;20269;-67
2022/08/22 01:02:15;;;;;;;1.10;1.00;;;19.60;99.90;;;;;;5095121;28;20277;-66
2022/08/22 01:05:02;;;;;;;1.00;0.90;;;19.60;99.90;;;;;;5098206;28;20285;-67
2022/08/22 01:07:53;;;;;;;0.90;0.90;;;19.60;99.90;;;;;;5088748;28;20255;-65
2022/08/22 01:10:37;;;;;;;1.00;1.00;;;19.40;99.90;;;;;;5087104;28;20777;-66
2022/08/22 01:13:24;;;;;;;1.08;1.08;;;19.40;99.90;;;;;;5095060;28;20289;-65
2022/08/22 01:15:58;;;;;;;0.90;0.90;;;19.30;99.90;;;;;;5095014;28;20207;-66
2022/08/22 01:19:05;;;;;;;1.20;1.20;;;19.30;99.90;;;;;;5089796;28;20276;-66
2022/08/22 01:22:06;;;;;;;1.20;1.20;;;19.30;99.90;;;;;;5080112;28;20219;-66
2022/08/22 01:25:17;;;;;;;0.85;0.85;;;19.20;99.90;;;;;;5086240;28;20661;-66
2022/08/22 01:28:37;;;;;;;1.02;1.02;;;19.30;99.90;;;;;;5083769;28;20297;-68
2022/08/22 01:31:41;;;;;;;0.90;0.90;;;19.20;99.90;;;;;;5084254;28;20237;-67
2022/08/22 01:34:39;;;;;;;1.10;1.10;;;19.20;99.90;;;;;;5078918;28;20305;-67
2022/08/22 01:37:32;;;;;;;0.80;0.80;;;19.30;99.90;;;;;;5082373;28;20207;-66
2022/08/22 01:40:33;;;;;;;1.17;1.17;;;19.20;99.90;;;;;;5091819;28;20404;-68
2022/08/22 01:43:13;;;;;;;1.30;1.20;;;19.20;99.90;;;;;;5063627;28;20219;-68
2022/08/22 01:46:37;;;;;;;1.30;1.20;;;19.10;99.90;;;;;;5088335;28;20290;-67
2022/08/22 01:49:15;;;;;;;1.40;1.30;;;19.10;99.90;;;;;;5009944;28;20204;-67
2022/08/22 01:51:50;;;;;;;1.00;1.00;;;19.00;99.90;;;;;;5029969;28;20304;-67
2022/08/22 01:54:30;;;;;;;0.82;0.82;;;19.00;99.90;;;;;;5021945;28;20242;-67
2022/08/22 01:57:01;;;;;;;1.20;1.10;;;19.00;99.90;;;;;;5024955;28;20303;-69
2022/08/22 01:59:33;;;;;;;1.00;1.00;;;18.90;99.90;;;;;;5030866;28;20232;-67
2022/08/22 02:02:13;;;;;;;1.00;1.00;;;18.90;99.90;;;;;;5024358;28;20247;-68
2022/08/22 02:04:46;;;;;;;0.85;0.85;;;18.90;99.90;;;;;;5029601;28;20580;-67
2022/08/22 02:07:19;;;;;;;1.27;1.17;;;18.90;99.90;;;;;;5030743;28;20247;-67
2022/08/22 02:09:59;;;;;;;1.00;1.00;;;18.80;99.90;;;;;;5030918;28;20373;-67
2022/08/22 02:12:34;;;;;;;0.90;0.90;;;18.80;99.90;;;;;;5026560;28;20211;-66
2022/08/22 02:15:12;;;;;;;1.00;1.00;;;18.80;99.90;;;;;;5028462;28;20231;-68
2022/08/22 02:18:00;;;;;;;0.88;0.88;;;18.80;99.90;;;;;;5025209;28;20413;-67
2022/08/22 02:20:33;;;;;;;1.00;1.00;;;18.70;99.90;;;;;;5081205;28;20678;-67
2022/08/22 02:23:14;;;;;;;1.80;1.15;;;18.80;99.90;;;;;;5086126;28;20227;-67
2022/08/22 02:25:50;;;;;;;0.90;0.90;;;18.80;99.90;;;;;;5092871;28;20234;-67
2022/08/22 02:28:30;;;;;;;0.90;0.90;;;18.80;99.90;;;;;;5093522;28;20202;-67
2022/08/22 02:31:06;;;;;;;0.90;0.90;;;18.90;99.90;;;;;;5086477;28;20230;-67
2022/08/22 02:33:42;;;;;;;1.02;1.02;;;18.80;99.90;;;;;;5094460;28;20217;-69
2022/08/22 02:36:19;;;;;;;1.00;1.00;;;18.80;99.90;;;;;;5094379;28;20548;-68
2022/08/22 02:38:59;;;;;;;0.93;0.93;;;18.80;99.90;;;;;;5096788;28;20297;-67
2022/08/22 02:41:31;;;;;;;1.00;1.00;;;18.90;99.90;;;;;;5093168;28;20221;-68
2022/08/22 02:44:05;;;;;;;1.08;1.08;;;18.80;99.90;;;;;;5095958;28;20651;-66
2022/08/22 02:46:45;;;;;;;1.02;1.02;;;18.70;99.90;;;;;;5094520;28;20206;-66
2022/08/22 02:49:22;;;;;;;1.00;1.00;;;18.70;99.90;;;;;;5096897;28;20213;-67
2022/08/22 02:51:55;;;;;;;1.30;1.20;;;18.60;99.90;;;;;;5102634;28;20198;-66
2022/08/22 02:54:29;;;;;;;0.90;0.90;;;18.50;99.90;;;;;;5095989;28;20207;-66
2022/08/22 02:57:02;;;;;;;1.00;1.00;;;18.40;99.90;;;;;;5108733;28;20286;-67
2022/08/22 02:59:36;;;;;;;0.82;0.82;;;18.40;99.90;;;;;;5108665;28;20230;-66
2022/08/22 03:02:28;;;;;;;1.00;1.00;;;18.40;99.90;;;;;;5104614;28;20240;-66
2022/08/22 03:04:57;;;;;;;1.25;1.20;;;18.30;99.90;;;;;;5093294;28;20259;-67
2022/08/22 03:07:36;;;;;;;1.00;1.00;;;18.20;99.90;;;;;;5085156;28;20692;-66
2022/08/22 03:10:13;;;;;;;0.82;0.82;;;18.10;99.90;;;;;;5092492;28;20230;-67
2022/08/22 03:12:47;;;;;;;1.27;1.20;;;18.10;99.90;;;;;;5097483;28;20198;-66
2022/08/22 03:15:21;;;;;;;0.80;0.80;;;18.10;99.90;;;;;;5099602;28;20233;-67
2022/08/22 03:17:52;;;;;;;0.90;0.90;;;18.00;99.90;;;;;;5101539;28;20230;-67
2022/08/22 03:20:37;;;;;;;0.98;0.98;;;18.00;99.90;;;;;;5096864;28;20218;-66
2022/08/22 03:23:11;;;;;;;1.00;1.00;;;18.00;99.90;;;;;;5095751;28;20222;-67
2022/08/22 03:25:44;;;;;;;1.13;1.13;;;17.90;99.90;;;;;;5096829;28;20210;-67
2022/08/22 03:28:15;;;;;;;0.93;0.93;;;17.90;99.90;;;;;;5090684;28;20206;-66
2022/08/22 03:30:45;;;;;;;0.98;0.98;;;17.90;99.90;;;;;;5087613;28;20230;-66
2022/08/22 03:33:18;;;;;;;0.93;0.93;;;17.80;99.90;;;;;;5104548;22;20254;-64
2022/08/22 03:36:02;;;;;;;1.00;1.00;;;17.70;99.90;;;;;;5071749;28;20213;-61
2022/08/22 03:38:59;;;;;;;0.90;0.90;;;17.80;99.90;;;;;;5076749;28;20222;-61
2022/08/22 03:41:55;;;;;;;1.03;1.03;;;17.80;99.90;;;;;;5070105;28;20298;-60
2022/08/22 03:44:53;;;;;;;0.80;0.80;;;17.80;99.90;;;;;;5056345;28;20211;-61
2022/08/22 03:47:51;;;;;;;1.10;1.10;;;17.80;99.90;;;;;;5048591;28;20226;-60
2022/08/22 03:50:51;;;;;;;0.88;0.88;;;17.80;99.90;;;;;;5049991;28;20290;-60
2022/08/22 03:53:57;;;;;;;0.95;0.95;;;17.80;99.90;;;;;;5059396;28;20739;-61
2022/08/22 03:56:44;;;;;;;0.80;0.80;;;17.80;99.90;;;;;;5057185;28;20287;-60
2022/08/22 03:59:56;;;;;;;0.90;0.90;;;17.80;99.90;;;;;;5059776;28;20202;-62
2022/08/22 04:03:03;;;;;;;0.90;0.90;;;17.90;99.90;;;;;;5037950;28;20242;-62
2022/08/22 04:06:08;;;;;;;0.70;0.70;;;17.80;99.90;;;;;;5051888;28;20207;-62
2022/08/22 04:09:06;;;;;;;1.00;0.97;;;17.80;99.90;;;;;;5054091;28;20204;-62
2022/08/22 04:12:01;;;;;;;0.98;0.98;;;17.80;99.90;;;;;;5033713;28;20287;-61
2022/08/22 04:14:58;;;;;;;0.90;0.90;;;17.80;99.90;;;;;;5046768;28;20295;-63
2022/08/22 04:17:46;;;;;;;0.90;0.90;;;17.80;99.90;;;;;;5056494;28;20208;-61
2022/08/22 04:20:36;;;;;;;0.97;0.97;;;17.70;99.90;;;;;;5057170;28;20231;-60
2022/08/22 04:23:43;;;;;;;1.05;1.02;;;17.70;99.90;;;;;;5056809;28;20228;-63
2022/08/22 04:26:15;;;;;;;1.00;1.00;;;17.60;99.90;;;;;;5065031;28;20582;-63
2022/08/22 04:28:48;;;;;;;0.90;0.90;;;17.50;99.90;;;;;;5067231;28;20568;-62
2022/08/22 04:31:18;;;;;;;1.17;1.10;;;17.40;99.90;;;;;;5072959;28;20235;-61
2022/08/22 04:33:52;;;;;;;1.00;1.00;;;17.30;99.90;;;;;;5083122;28;20287;-62
2022/08/22 04:36:25;;;;;;;1.00;1.00;;;17.20;99.90;;;;;;5063894;28;20225;-61
2022/08/22 04:38:57;;;;;;;1.20;1.10;;;17.10;99.90;;;;;;5058304;28;20234;-61
2022/08/22 04:41:30;;;;;;;0.70;0.70;;;17.00;99.90;;;;;;5069025;28;20207;-61
2022/08/22 04:44:03;;;;;;;1.10;1.00;;;17.00;99.90;;;;;;5063430;28;20315;-61
2022/08/22 04:46:37;;;;;;;0.90;0.90;;;17.00;99.90;;;;;;5072365;28;20218;-62
2022/08/22 04:49:10;;;;;;;1.05;1.05;;;17.00;99.90;;;;;;5061094;28;20554;-62
2022/08/22 04:51:41;;;;;;;1.97;1.20;;;17.00;99.90;;;;;;5063898;28;20212;-61
2022/08/22 04:54:26;;;;;;;1.02;1.02;;;17.00;99.90;;;;;;5060303;28;20249;-61
2022/08/22 04:57:08;;;;;;;0.90;0.90;;;17.00;99.90;;;;;;5060050;28;20572;-61
2022/08/22 04:59:37;;;;;;;1.27;1.07;;;17.00;99.90;;;;;;5059525;28;20204;-63
2022/08/22 05:02:08;;;;;;;1.10;1.10;;;16.90;99.90;;;;;;5070634;28;20231;-61
2022/08/22 05:04:38;;;;;;;1.03;1.03;;;16.90;99.90;;;;;;5055996;28;20208;-62
2022/08/22 05:07:08;;;;;;;1.00;1.00;;;16.90;99.90;;;;;;5054591;28;20271;-63
2022/08/22 05:09:41;;;;;;;1.02;1.00;;;16.90;99.90;;;;;;5058522;28;20527;-63
2022/08/22 05:12:13;;;;;;;1.00;1.00;;;16.90;99.90;;;;;;5056334;28;20204;-61
2022/08/22 05:14:44;;;;;;;0.93;0.93;;;16.90;99.90;;;;;;5065336;28;20199;-63
2022/08/22 05:17:14;;;;;;;1.40;1.30;;;17.10;99.90;;;;;;5062136;28;20337;-61
2022/08/22 05:19:46;;;;;;;1.00;1.00;;;16.90;99.90;;;;;;5064446;28;20733;-62
2022/08/22 05:22:18;;;;;;;2.05;1.20;;;16.90;99.90;;;;;;5061015;28;20223;-60
2022/08/22 05:24:48;;;;;;;1.00;1.00;;;17.00;99.90;;;;;;5064735;28;20207;-60
2022/08/22 05:27:19;;;;;;;1.07;1.07;;;17.00;99.90;;;;;;5067177;28;20199;-61
2022/08/22 05:29:50;;;;;;;0.93;0.93;;;17.10;99.90;;;;;;5055985;28;20208;-61
2022/08/22 05:32:24;;;;;;;1.20;1.10;;;17.20;99.90;;;;;;5068270;28;20719;-61
2022/08/22 05:34:55;;;;;;;1.30;1.20;;;17.30;99.90;;;;;;5051302;28;20196;-61
2022/08/22 05:37:29;;;;;;;1.10;1.00;;;17.40;99.90;;;;;;5055700;28;20214;-61
2022/08/22 05:40:00;;;;;;;1.00;1.00;;;17.40;99.90;;;;;;5060160;28;20204;-62
2022/08/22 05:42:31;;;;;;;1.02;1.02;;;17.60;99.90;;;;;;5065504;28;20686;-62
2022/08/22 05:45:01;;;;;;;1.10;1.10;;;17.60;99.90;;;;;;5054678;28;20299;-61
2022/08/22 05:47:36;;;;;;;1.13;1.02;;;17.70;99.90;;;;;;5066333;28;20263;-62
2022/08/22 05:50:07;;;;;;;0.90;0.90;;;17.80;99.90;;;;;;5070289;28;20203;-61
2022/08/22 05:52:46;;;;;;;0.80;0.80;;;17.90;99.90;;;;;;5067969;28;20569;-63
2022/08/22 05:55:22;;;;;;;1.13;1.02;;;18.00;99.90;;;;;;5054412;28;20260;-63
2022/08/22 05:57:55;;;;;;;1.13;1.13;;;18.10;99.90;;;;;;5069151;28;20235;-61
2022/08/22 06:00:31;;;;;;;0.90;0.90;;;18.20;99.90;;;;;;5060220;28;20207;-62
2022/08/22 06:03:10;;;;;;;1.10;1.10;;;18.40;99.90;;;;;;5058425;28;20229;-61
2022/08/22 06:05:41;;;;;;;0.97;0.97;;;18.50;99.90;;;;;;5067277;28;20204;-62
2022/08/22 06:08:17;;;;;;;1.13;1.10;;;18.60;99.90;;;;;;5072480;28;20257;-61
2022/08/22 06:10:47;;;;;;;1.38;1.27;;;18.70;99.90;;;;;;5066129;28;20307;-63
2022/08/22 06:13:20;;;;;;;1.07;1.07;;;18.70;99.90;;;;;;5061920;28;20216;-61
2022/08/22 06:15:55;;;;;;;1.00;1.00;;;18.80;99.90;;;;;;5064010;28;20206;-62
2022/08/22 06:18:26;;;;;;;0.97;0.97;;;19.00;99.90;;;;;;5049006;28;20649;-62
2022/08/22 06:20:55;;;;;;;0.98;0.98;;;19.10;99.90;;;;;;5070459;28;20253;-61
2022/08/22 06:23:26;;;;;;;1.00;1.00;;;19.20;99.90;;;;;;5065121;28;20231;-61
2022/08/22 06:25:57;;;;;;;1.33;1.00;;;19.30;99.90;;;;;;5064739;28;20278;-62
2022/08/22 06:28:26;;;;;;;1.10;1.10;;;19.40;99.90;;;;;;5068638;28;20616;-62
2022/08/22 06:30:57;;;;;;;1.00;1.00;;;19.50;99.90;;;;;;5065113;28;20199;-62
2022/08/22 06:33:27;;;;;;;0.93;0.93;;;19.60;99.90;;;;;;5062704;28;20227;-61
2022/08/22 06:39:04;;;;;;;1.83;1.30;;;20.00;99.90;;;;;;5052251;28;20222;-61
2022/08/22 06:41:35;;;;;;;1.37;1.23;;;20.10;99.90;;;;;;5054014;28;20203;-60
2022/08/22 06:44:04;;;;;;;1.57;1.10;;;20.20;99.90;;;;;;5053442;28;20263;-60
2022/08/22 06:46:36;;;;;;;1.60;1.40;;;20.10;99.90;;;;;;5064289;28;20673;-60
2022/08/22 06:49:05;;;;;;;1.45;1.35;;;20.30;99.90;;;;;;5056818;28;20593;-60
2022/08/22 06:51:34;;;;;;;1.10;1.10;;;20.40;99.90;;;;;;5063055;28;20210;-61
2022/08/22 06:54:05;;;;;;;1.08;1.05;;;20.40;99.90;;;;;;5059112;28;20220;-60
2022/08/22 06:56:38;;;;;;;1.25;1.20;;;20.50;99.90;;;;;;5059313;28;20214;-60
2022/08/22 06:59:12;;;;;;;1.20;1.20;;;20.70;99.90;;;;;;5057996;28;20203;-60
2022/08/22 07:01:47;;;;;;;1.23;1.20;;;20.70;99.90;;;;;;5058289;28;20210;-62
2022/08/22 07:04:14;;;;;;;1.33;1.25;;;20.70;99.90;;;;;;5062346;28;20222;-61
2022/08/22 07:06:43;;;;;;;1.10;1.10;;;20.70;99.90;;;;;;5045187;28;20208;-61
2022/08/22 07:09:21;;;;;;;1.20;1.20;;;20.70;99.90;;;;;;5067014;28;20211;-61
2022/08/22 07:11:48;;;;;;;1.10;1.10;;;20.60;99.90;;;;;;5050873;28;20311;-60
2022/08/22 07:14:24;;;;;;;1.20;1.20;;;20.60;99.90;;;;;;5065459;28;20720;-61
2022/08/22 07:16:57;;;;;;;1.30;1.20;;;20.70;99.90;;;;;;5055595;28;20298;-61
2022/08/22 07:19:27;;;;;;;1.20;1.10;;;20.70;99.90;;;;;;5063337;28;20256;-61
2022/08/22 07:21:54;;;;;;;1.30;1.20;;;20.70;99.90;;;;;;5061845;28;20587;-61
2022/08/22 07:24:24;;;;;;;1.20;1.20;;;20.70;99.90;;;;;;5055642;28;20231;-61
2022/08/22 07:27:07;;;;;;;1.08;1.08;;;21.00;99.90;;;;;;5062785;28;20286;-60
2022/08/22 07:29:47;;;;;;;1.02;1.02;;;21.20;99.90;;;;;;5053311;28;20206;-60
2022/08/22 07:32:20;;;;;;;1.35;1.00;;;21.50;99.90;;;;;;5048310;28;20199;-60
2022/08/22 07:35:04;;;;;;;1.40;1.30;;;21.70;99.90;;;;;;5042322;28;20578;-60
2022/08/22 07:37:54;;;;;;;1.30;1.20;;;21.60;99.90;;;;;;5046004;28;20204;-61
2022/08/22 07:40:27;;;;;;;1.25;1.15;;;21.60;99.90;;;;;;5049219;28;20208;-61
2022/08/22 07:42:59;;;;;;;1.00;1.00;;;21.70;99.90;;;;;;5052805;28;20302;-61
2022/08/22 07:45:34;;;;;;;1.48;1.38;;;21.80;99.90;;;;;;5055174;28;20206;-61
2022/08/22 07:48:11;;;;;;;1.05;1.05;;;22.10;99.90;;;;;;5055017;28;20361;-61
2022/08/22 07:50:46;;;;;;;1.15;1.15;;;22.20;99.90;;;;;;5053506;28;20200;-61
2022/08/22 07:53:22;;;;;;;1.30;1.20;;;22.30;99.90;;;;;;5055904;28;20235;-60
2022/08/22 07:55:51;;;;;;;4.80;1.35;;;22.40;99.90;;;;;;5054136;28;20211;-60
2022/08/22 07:58:21;;;;;;;1.02;1.02;;;22.40;99.90;;;;;;5056451;28;20207;-61
2022/08/22 08:00:49;;;;;;;1.10;1.10;;;22.60;99.90;;;;;;5054529;28;20208;-60
2022/08/22 08:03:22;;;;;;;1.02;1.02;;;22.80;99.90;;;;;;5051258;28;20237;-61
2022/08/22 08:05:49;;;;;;;0.98;0.98;;;22.90;99.90;;;;;;5052781;28;20204;-60
2022/08/22 08:08:21;;;;;;;1.00;1.00;;;23.00;99.90;;;;;;5045411;28;20672;-60
2022/08/22 08:10:50;;;;;;;1.35;1.13;;;23.10;99.90;;;;;;5043529;28;20205;-63
2022/08/22 08:13:24;;;;;;;1.00;1.00;;;23.10;99.90;;;;;;5047205;28;20665;-63
2022/08/22 08:15:51;;;;;;;1.25;1.20;;;23.20;99.90;;;;;;5043330;28;20231;-62
2022/08/22 08:18:24;;;;;;;1.45;1.35;;;23.10;99.90;;;;;;5044018;28;20295;-61
2022/08/22 08:20:56;;;;;;;1.15;1.15;;;23.20;99.90;;;;;;5045667;28;20234;-61
2022/08/22 08:23:25;;;;;;;1.02;1.02;;;23.30;99.90;;;;;;5053090;28;20702;-61
2022/08/22 08:26:02;;;;;;;1.42;1.20;;;23.50;99.90;;;;;;5053137;28;20204;-61
2022/08/22 08:28:34;;;;;;;1.08;1.08;;;23.60;99.90;;;;;;5056766;28;20685;-63
2022/08/22 08:31:07;;;;;;;1.40;1.30;;;23.80;99.90;;;;;;5058035;28;20219;-62
2022/08/22 08:33:38;;;;;;;1.13;1.13;;;23.90;99.90;;;;;;5052955;28;20224;-61
2022/08/22 08:36:22;;;;;;;1.40;1.30;;;24.00;99.90;;;;;;5059318;28;20287;-61
2022/08/22 08:38:55;;;;;;;1.08;1.08;;;24.00;99.90;;;;;;5058121;28;20208;-62
2022/08/22 08:41:56;;;;;;;1.02;1.02;;;24.20;99.90;;;;;;5056495;28;20210;-63
2022/08/22 08:44:47;;;;;;;1.10;1.08;;;24.40;99.90;;;;;;5007712;28;20223;-61
2022/08/22 08:47:44;;;;;;;1.05;1.02;;;24.70;99.90;;;;;;5036139;28;20207;-61
2022/08/22 08:50:27;;;;;;;1.00;1.00;;;24.70;99.90;;;;;;5056831;28;20294;-63
2022/08/22 08:53:31;;;;;;;1.10;1.10;;;24.70;99.90;;;;;;5051180;28;20303;-62
2022/08/22 08:56:03;;;;;;;1.13;1.13;;;24.80;99.90;;;;;;5053627;28;20283;-63
2022/08/22 08:58:37;;;;;;;1.08;1.08;;;24.90;99.90;;;;;;5058049;28;20200;-63
2022/08/22 09:01:17;;;;;;;1.00;1.00;;;25.10;99.90;;;;;;5057997;28;20200;-61
2022/08/22 09:04:13;;;;;;;1.00;1.00;;;25.20;99.90;;;;;;5057473;28;20317;-62
2022/08/22 09:07:01;;;;;;;1.30;1.27;;;25.20;99.90;;;;;;5056011;28;20208;-62
2022/08/22 09:09:41;;;;;;;1.13;1.13;;;25.40;99.90;;;;;;5061176;28;20230;-62
2022/08/22 09:12:40;;;;;;;1.08;1.08;;;25.60;99.90;;;;;;5062292;28;20204;-61
2022/08/22 09:15:28;;;;;;;1.55;1.10;;;25.70;99.90;;;;;;4988169;28;20257;-61
2022/08/22 09:18:27;;;;;;;1.05;1.05;;;25.80;99.90;;;;;;5065201;28;20203;-62
2022/08/22 09:21:26;;;;;;;1.30;1.20;;;25.80;99.90;;;;;;5065346;28;20236;-61
2022/08/22 09:24:31;;;;;;;1.10;1.10;;;25.80;99.90;;;;;;5059045;28;20230;-61
2022/08/22 09:27:01;;;;;;;1.17;1.17;;;26.00;99.90;;;;;;5058682;28;20195;-61
2022/08/22 09:29:39;;;;;;;1.02;1.02;;;25.90;99.90;;;;;;5060465;28;20587;-61
2022/08/22 09:32:16;;;;;;;0.90;0.90;;;26.00;99.90;;;;;;5057485;28;20259;-63
2022/08/22 09:34:56;;;;;;;0.80;0.80;;;26.10;99.90;;;;;;5045875;28;20665;-61
2022/08/22 09:37:34;;;;;;;1.52;1.38;;;26.30;99.90;;;;;;5055520;28;20571;-61
2022/08/22 09:40:08;;;;;;;1.15;1.15;;;26.40;99.90;;;;;;5060637;28;20199;-62
2022/08/22 09:42:44;;;;;;;1.23;1.17;;;26.50;99.90;;;;;;5069575;28;20230;-61
2022/08/22 09:45:44;;;;;;;0.93;0.93;;;26.60;99.90;;;;;;5051948;28;20221;-61
2022/08/22 09:48:33;;;;;;;1.20;1.10;;;26.90;99.90;;;;;;5042542;28;20624;-61
2022/08/22 09:51:10;;;;;;;1.05;1.05;;;27.00;99.90;;;;;;5041653;28;20200;-61
2022/08/22 09:53:54;;;;;;;0.98;0.98;;;27.10;99.90;;;;;;5035938;28;20638;-61
2022/08/22 09:56:29;;;;;;;1.10;1.10;;;27.30;99.90;;;;;;5042602;28;20658;-60
2022/08/22 09:59:01;;;;;;;1.10;1.10;;;27.50;99.90;;;;;;5036863;28;20207;-61
2022/08/22 10:01:32;;;;;;;1.00;1.00;;;27.50;99.90;;;;;;5075195;22;21358;-61
2022/08/22 10:04:26;;;;;;;1.17;1.10;;;27.60;99.90;;;;;;5024705;28;20235;-61
2022/08/22 10:07:01;;;;;;;1.08;1.08;;;27.60;99.90;;;;;;4996498;28;20248;-62
2022/08/22 10:09:39;;;;;;;1.10;1.10;;;27.90;99.90;;;;;;5019372;28;20209;-61
2022/08/22 10:12:12;;;;;;;1.02;1.02;;;28.10;99.90;;;;;;5019231;28;20204;-60
2022/08/22 10:15:00;;;;;;;0.90;0.90;;;28.00;99.90;;;;;;5014419;28;20237;-62
2022/08/22 10:17:31;;;;;;;1.13;1.13;;;27.50;99.90;;;;;;5016739;28;20542;-62
2022/08/22 10:20:03;;;;;;;1.05;1.05;;;27.50;99.90;;;;;;5015492;28;20224;-61
2022/08/22 10:22:41;;;;;;;0.98;0.98;;;27.80;99.90;;;;;;5018047;28;20221;-61
2022/08/22 10:25:23;;;;;;;1.30;1.20;;;27.90;99.90;;;;;;5015168;28;20691;-60
2022/08/22 10:28:08;;;;;;;1.10;1.10;;;27.80;99.90;;;;;;5017867;28;20686;-61
2022/08/22 10:30:43;;;;;;;1.20;1.10;;;27.90;99.90;;;;;;5025164;28;20204;-61
2022/08/22 10:33:16;;;;;;;1.08;1.08;;;28.10;99.90;;;;;;5025858;28;20224;-61
2022/08/22 10:35:54;;;;;;;1.10;1.10;;;28.10;99.90;;;;;;5026701;28;20198;-60
2022/08/22 10:38:25;;;;;;;1.33;1.23;;;28.20;99.90;;;;;;5023851;28;20197;-60
2022/08/22 10:41:00;;;;;;;1.10;1.10;;;28.40;99.90;;;;;;5018299;28;20211;-61
2022/08/22 10:43:37;;;;;;;1.13;1.13;;;28.60;99.90;;;;;;5012593;28;20229;-61
2022/08/22 10:46:09;;;;;;;2.55;1.00;;;28.60;99.90;;;;;;5016508;28;20215;-62
2022/08/22 10:48:46;;;;;;;1.05;1.05;;;28.60;99.90;;;;;;5015358;28;20209;-61
2022/08/22 10:51:24;;;;;;;1.13;1.10;;;28.90;99.90;;;;;;5016242;28;20205;-61
2022/08/22 10:54:14;;;;;;;1.10;1.10;;;28.90;99.90;;;;;;5017530;28;20281;-62
2022/08/22 10:56:49;;;;;;;1.13;1.13;;;28.90;99.90;;;;;;4987852;28;20201;-62
2022/08/22 10:59:30;;;;;;;1.05;1.05;;;29.10;99.90;;;;;;5015954;28;20287;-62
2022/08/22 11:02:10;;;;;;;1.00;1.00;;;29.10;99.90;;;;;;5019773;28;20682;-61
2022/08/22 11:04:58;;;;;;;1.30;1.20;;;29.20;99.90;;;;;;5017791;28;20640;-62
2022/08/22 11:07:45;;;;;;;1.10;1.10;;;28.90;99.90;;;;;;5016493;28;20296;-61
2022/08/22 11:10:25;;;;;;;1.10;1.10;;;28.90;99.90;;;;;;5022872;28;20204;-62
2022/08/22 11:13:05;;;;;;;1.20;1.20;;;29.00;99.90;;;;;;5013888;28;20231;-62
2022/08/22 11:15:58;;;;;;;1.10;1.10;;;29.00;99.90;;;;;;5017835;28;20633;-61
2022/08/22 11:18:49;;;;;;;1.02;1.00;;;29.30;99.90;;;;;;5019969;28;20236;-62
2022/08/22 11:21:27;;;;;;;1.10;1.10;;;29.50;99.90;;;;;;5008888;28;20204;-60
2022/08/22 11:24:05;;;;;;;0.98;0.93;;;29.50;99.90;;;;;;5026128;28;20235;-60
2022/08/22 11:26:42;;;;;;;1.20;1.20;;;29.60;99.90;;;;;;5026556;28;20209;-61
2022/08/22 11:29:45;;;;;;;1.13;1.10;;;29.70;99.90;;;;;;5030576;28;20287;-61
2022/08/22 11:32:19;;;;;;;1.08;1.00;;;29.70;99.90;;;;;;5031166;28;20294;-61
2022/08/22 11:34:55;;;;;;;0.98;0.98;;;29.90;99.90;;;;;;5020254;28;20272;-60
2022/08/22 11:37:40;;;;;;;1.00;1.00;;;30.10;99.90;;;;;;5019494;28;20205;-61
2022/08/22 11:40:24;;;;;;;0.98;0.98;;;30.10;99.90;;;;;;5018710;28;20303;-63
2022/08/22 11:42:58;;;;;;;1.00;1.00;;;30.30;99.90;;;;;;5013714;28;20620;-60
2022/08/22 11:45:31;;;;;;;1.08;1.08;;;30.40;99.90;;;;;;5014218;28;20224;-61
2022/08/22 11:48:07;;;;;;;0.90;0.90;;;30.40;99.90;;;;;;5020205;28;20201;-62
2022/08/22 11:50:36;;;;;;;0.93;0.93;;;30.20;99.90;;;;;;5022680;28;21313;-62
2022/08/22 11:53:22;;;;;;;1.00;1.00;;;30.10;99.90;;;;;;5018041;28;20224;-62
2022/08/22 11:55:59;;;;;;;1.00;1.00;;;30.30;99.90;;;;;;5015679;28;20204;-63
2022/08/22 11:58:34;;;;;;;1.00;1.00;;;30.30;99.90;;;;;;5017906;28;20211;-61
2022/08/22 12:01:04;;;;;;;0.95;0.95;;;30.30;99.90;;;;;;5017230;28;20205;-60
2022/08/22 12:03:50;;;;;;;1.30;1.20;;;30.20;99.90;;;;;;5014400;28;20260;-62
2022/08/22 12:06:40;;;;;;;1.17;1.08;;;30.50;99.90;;;;;;5016932;28;20694;-61
2022/08/22 12:09:39;;;;;;;1.00;1.00;;;30.30;99.90;;;;;;5017228;28;20602;-61
2022/08/22 12:12:26;;;;;;;1.30;1.20;;;30.40;99.90;;;;;;5020471;28;20705;-61
2022/08/22 12:15:06;;;;;;;0.90;0.90;;;30.60;99.90;;;;;;5020496;28;20200;-61
2022/08/22 12:18:03;;;;;;;1.00;1.00;;;30.40;99.90;;;;;;5020176;28;20212;-61
2022/08/22 12:21:00;;;;;;;1.00;1.00;;;30.50;99.60;;;;;;4992746;28;20200;-62
2022/08/22 12:23:52;;;;;;;1.85;1.05;;;30.70;99.40;;;;;;5017446;28;20227;-61
2022/08/22 12:26:27;;;;;;;1.10;1.05;;;30.70;99.70;;;;;;5019548;28;20271;-62
2022/08/22 12:29:12;;;;;;;0.90;0.90;;;30.90;99.90;;;;;;5019118;28;20315;-62
2022/08/22 12:31:46;;;;;;;1.10;1.10;;;31.00;99.70;;;;;;5019726;28;20299;-62
2022/08/22 12:34:21;;;;;;;1.10;1.00;;;31.00;97.90;;;;;;5025487;28;20223;-62
2022/08/22 12:37:00;;;;;;;1.33;1.23;;;30.90;98.40;;;;;;5027837;28;20218;-63
2022/08/22 12:39:49;;;;;;;1.13;1.13;;;31.00;98.50;;;;;;5022330;28;20623;-62
2022/08/22 12:42:28;;;;;;;0.95;0.95;;;31.10;98.80;;;;;;5030436;28;20204;-60
2022/08/22 12:45:20;;;;;;;1.10;1.10;;;30.90;98.00;;;;;;5020835;28;20224;-61
2022/08/22 12:47:59;;;;;;;1.48;1.20;;;30.40;98.50;;;;;;5023955;28;20289;-62
2022/08/22 12:50:38;;;;;;;1.00;1.00;;;30.40;98.20;;;;;;5022845;28;20667;-62
2022/08/22 12:53:34;;;;;;;1.00;1.00;;;30.60;98.50;;;;;;5031530;28;20256;-61
2022/08/22 12:56:15;;;;;;;1.00;1.00;;;30.90;98.70;;;;;;5024381;28;20211;-61
2022/08/22 12:59:01;;;;;;;1.13;1.02;;;31.10;97.60;;;;;;5035260;28;20219;-61
2022/08/22 13:01:35;;;;;;;1.05;1.05;;;31.10;98.00;;;;;;5034907;28;20666;-61
2022/08/22 13:04:05;;;;;;;2.75;1.20;;;31.20;97.60;;;;;;5037968;28;20221;-61
2022/08/22 13:06:56;;;;;;;1.23;1.15;;;31.10;96.70;;;;;;5031664;28;20247;-61
2022/08/22 13:09:29;;;;;;;1.58;1.00;;;30.90;97.00;;;;;;5038962;28;20262;-63
2022/08/22 13:12:01;;;;;;;1.00;1.00;;;31.10;97.40;;;;;;5044690;28;20208;-62
2022/08/22 13:14:30;;;;;;;0.93;0.93;;;31.00;96.70;;;;;;5033077;28;20202;-62
2022/08/22 13:17:01;;;;;;;1.13;1.10;;;31.20;97.00;;;;;;5026809;28;20205;-62
2022/08/22 13:19:31;;;;;;;1.27;1.17;;;31.20;96.80;;;;;;5033379;28;20642;-61
2022/08/22 13:22:03;;;;;;;0.98;0.98;;;31.30;96.80;;;;;;5044696;28;20239;-63
2022/08/22 13:24:38;;;;;;;1.13;1.00;;;31.40;97.00;;;;;;5040283;28;20284;-62
2022/08/22 13:27:09;;;;;;;0.73;0.73;;;31.50;97.00;;;;;;5037700;28;20288;-62
2022/08/22 13:29:43;;;;;;;0.98;0.98;;;31.70;96.90;;;;;;5036041;28;20287;-62
2022/08/22 13:32:20;;;;;;;1.10;1.10;;;31.70;96.00;;;;;;5043713;28;20261;-66
2022/08/22 13:34:52;;;;;;;0.93;0.93;;;31.50;95.40;;;;;;5042521;28;20319;-61
2022/08/22 13:37:23;;;;;;;0.98;0.98;;;31.40;95.90;;;;;;5035839;28;20201;-60
2022/08/22 13:39:56;;;;;;;1.00;1.00;;;31.50;95.80;;;;;;5031146;28;20647;-62
2022/08/22 13:42:26;;;;;;;1.00;1.00;;;31.50;96.00;;;;;;5034134;28;20236;-62
2022/08/22 13:44:56;;;;;;;1.20;1.20;;;31.60;95.80;;;;;;5040811;28;20216;-60
2022/08/22 13:47:27;;;;;;;1.17;1.10;;;31.60;96.00;;;;;;5038479;28;20208;-61
2022/08/22 13:50:04;;;;;;;1.02;1.02;;;31.60;95.60;;;;;;5037775;28;20227;-63
2022/08/22 13:52:34;;;;;;;0.93;0.93;;;31.60;95.80;;;;;;5034421;28;20262;-62